Time;durP1;ratioP1;P1;durP2;ratioP2;P2;SDS_P1;SDS_P2;PMS_P1;PMS_P2;Temp;Humidity;BMP_temperature;BMP_pressure;BME280_temperature;BME280_humidity;BME280_pressure;Samples;Min_cycle;Max_cycle;Signal;HPM_P1;HPM_P2
2020/12/15 00:01:24;;;;;;;15.43;9.97;;;2.50;99.90;;;;;;5079090;28;20296;-69
2020/12/15 00:03:51;;;;;;;15.13;10.33;;;2.50;99.90;;;;;;5083176;28;20255;-70
2020/12/15 00:06:18;;;;;;;17.80;11.57;;;2.50;99.90;;;;;;5077128;28;20239;-70
2020/12/15 00:08:45;;;;;;;16.50;10.90;;;2.50;99.90;;;;;;5079660;28;20292;-69
2020/12/15 00:11:17;;;;;;;18.00;12.30;;;2.50;99.90;;;;;;5076053;28;20313;-68
2020/12/15 00:13:43;;;;;;;16.53;10.50;;;2.40;99.90;;;;;;5076671;28;20205;-69
2020/12/15 00:16:10;;;;;;;15.70;10.77;;;2.50;99.90;;;;;;5077657;28;20304;-69
2020/12/15 00:18:36;;;;;;;14.53;10.00;;;2.50;99.90;;;;;;5076754;28;20205;-70
2020/12/15 00:21:03;;;;;;;15.23;10.77;;;2.50;99.90;;;;;;5075266;28;20211;-69
2020/12/15 00:23:30;;;;;;;17.17;10.47;;;2.50;99.90;;;;;;5078763;28;20295;-70
2020/12/15 00:25:57;;;;;;;18.10;11.73;;;2.40;99.90;;;;;;5076656;28;20216;-69
2020/12/15 00:28:23;;;;;;;16.43;11.00;;;2.40;99.90;;;;;;5084465;28;20247;-70
2020/12/15 00:30:49;;;;;;;16.40;9.50;;;2.30;99.90;;;;;;5076033;28;20202;-70
2020/12/15 00:33:16;;;;;;;17.57;10.63;;;2.30;99.90;;;;;;5078847;28;20281;-70
2020/12/15 00:35:42;;;;;;;16.40;10.10;;;2.30;99.90;;;;;;5078195;28;20212;-70
2020/12/15 00:38:08;;;;;;;17.30;10.87;;;2.30;99.90;;;;;;5074042;28;20678;-70
2020/12/15 00:40:35;;;;;;;21.57;12.47;;;2.30;99.90;;;;;;5077672;28;20241;-69
2020/12/15 00:43:02;;;;;;;16.83;11.20;;;2.30;99.90;;;;;;5080168;28;20216;-69
2020/12/15 00:45:28;;;;;;;18.97;11.87;;;2.30;99.90;;;;;;5076662;28;20253;-69
2020/12/15 00:47:54;;;;;;;19.17;11.73;;;2.20;99.90;;;;;;5075131;28;20666;-70
2020/12/15 00:50:21;;;;;;;18.33;12.00;;;2.30;99.90;;;;;;5074862;28;20272;-70
2020/12/15 00:52:48;;;;;;;16.77;10.77;;;2.30;99.90;;;;;;5076206;28;20197;-69
2020/12/15 00:55:14;;;;;;;18.23;11.57;;;2.30;99.90;;;;;;5076790;28;20230;-70
2020/12/15 00:57:41;;;;;;;18.80;11.80;;;2.30;99.90;;;;;;5077285;28;20211;-70
2020/12/15 01:00:09;;;;;;;16.50;11.23;;;2.30;99.90;;;;;;5074563;28;20684;-70
2020/12/15 01:02:36;;;;;;;19.33;12.07;;;2.30;99.90;;;;;;5077921;28;20229;-69
2020/12/15 01:05:02;;;;;;;18.33;12.13;;;2.30;99.90;;;;;;5073878;28;20320;-70
2020/12/15 01:07:29;;;;;;;20.97;13.03;;;2.30;99.90;;;;;;5080996;28;20663;-69
2020/12/15 01:09:55;;;;;;;20.13;12.13;;;2.30;99.90;;;;;;5075045;28;20294;-69
2020/12/15 01:12:21;;;;;;;20.33;12.47;;;2.30;99.90;;;;;;5079835;28;20247;-69
2020/12/15 01:14:48;;;;;;;19.27;12.13;;;2.30;99.90;;;;;;5078598;28;20216;-70
2020/12/15 01:17:15;;;;;;;17.93;11.93;;;2.30;99.90;;;;;;5079559;28;20215;-69
2020/12/15 01:19:41;;;;;;;22.90;13.60;;;2.20;99.90;;;;;;5074346;28;20204;-68
2020/12/15 01:22:08;;;;;;;20.53;13.40;;;2.20;99.90;;;;;;5075075;28;20631;-69
2020/12/15 01:24:37;;;;;;;20.03;13.13;;;2.30;99.90;;;;;;5080779;28;20211;-68
2020/12/15 01:27:03;;;;;;;21.67;13.57;;;2.30;99.90;;;;;;5074042;28;20637;-69
2020/12/15 01:29:29;;;;;;;19.67;13.03;;;2.30;99.90;;;;;;5077882;28;20668;-69
2020/12/15 01:32:00;;;;;;;23.17;14.03;;;2.30;99.90;;;;;;5077520;28;20217;-69
2020/12/15 01:34:27;;;;;;;18.93;11.83;;;2.30;99.90;;;;;;5074385;28;20288;-69
2020/12/15 01:36:53;;;;;;;22.17;12.50;;;2.40;99.90;;;;;;5073180;28;20296;-69
2020/12/15 01:39:20;;;;;;;23.07;13.93;;;2.40;99.90;;;;;;5075042;28;20212;-69
2020/12/15 01:41:46;;;;;;;22.53;12.57;;;2.40;99.90;;;;;;5079851;28;20211;-71
2020/12/15 01:44:12;;;;;;;19.03;12.17;;;2.40;99.90;;;;;;5075439;28;20220;-68
2020/12/15 01:46:39;;;;;;;21.23;12.40;;;2.40;99.90;;;;;;5077033;28;20312;-69
2020/12/15 01:49:07;;;;;;;19.53;12.67;;;2.30;99.90;;;;;;5076059;28;20201;-68
2020/12/15 01:51:34;;;;;;;23.33;13.07;;;2.40;99.90;;;;;;5074136;28;20236;-68
2020/12/15 01:54:01;;;;;;;19.87;12.97;;;2.40;99.90;;;;;;5075589;28;20271;-69
2020/12/15 01:56:29;;;;;;;19.03;13.03;;;2.40;99.90;;;;;;5076275;28;20703;-69
2020/12/15 01:58:57;;;;;;;22.43;13.37;;;2.40;99.90;;;;;;5085728;28;20292;-70
2020/12/15 02:01:24;;;;;;;20.20;13.27;;;2.40;99.90;;;;;;5078969;28;20238;-69
2020/12/15 02:03:52;;;;;;;22.97;13.83;;;2.40;99.90;;;;;;5075569;28;20203;-69
2020/12/15 02:06:20;;;;;;;23.37;12.93;;;2.40;99.90;;;;;;5077702;28;20234;-69
2020/12/15 02:08:47;;;;;;;22.07;13.27;;;2.40;99.90;;;;;;5075773;28;20204;-69
2020/12/15 02:11:13;;;;;;;19.63;12.60;;;2.40;99.90;;;;;;5075779;28;20224;-70
2020/12/15 02:13:40;;;;;;;21.37;13.17;;;2.30;99.90;;;;;;5078581;28;20711;-68
2020/12/15 02:16:08;;;;;;;20.70;12.97;;;2.40;99.90;;;;;;5077343;28;20587;-69
2020/12/15 02:18:35;;;;;;;22.77;13.07;;;2.30;99.90;;;;;;5075342;28;20201;-69
2020/12/15 02:21:04;;;;;;;21.13;12.60;;;2.20;99.90;;;;;;5074395;28;20220;-69
2020/12/15 02:23:32;;;;;;;20.67;12.53;;;2.30;99.90;;;;;;5077283;28;20288;-70
2020/12/15 02:25:58;;;;;;;21.17;13.23;;;2.30;99.90;;;;;;5081422;28;20260;-70
2020/12/15 02:28:25;;;;;;;21.20;12.63;;;2.20;99.90;;;;;;5079239;28;20207;-69
2020/12/15 02:30:51;;;;;;;21.37;13.53;;;2.20;99.90;;;;;;5076051;28;20223;-71
2020/12/15 02:33:17;;;;;;;26.03;14.10;;;2.20;99.90;;;;;;5073342;28;20219;-69
2020/12/15 02:35:44;;;;;;;19.67;12.17;;;2.20;99.90;;;;;;5075574;28;20304;-69
2020/12/15 02:38:10;;;;;;;16.63;11.10;;;2.20;99.90;;;;;;5074859;28;20201;-68
2020/12/15 02:40:37;;;;;;;20.37;11.93;;;2.20;99.90;;;;;;5082368;28;20220;-68
2020/12/15 02:43:04;;;;;;;19.47;12.40;;;2.10;99.90;;;;;;5079876;28;20205;-68
2020/12/15 02:45:30;;;;;;;19.40;13.17;;;2.10;99.90;;;;;;5080541;28;20227;-67
2020/12/15 02:47:57;;;;;;;19.93;12.57;;;2.00;99.90;;;;;;5078713;28;20209;-68
2020/12/15 02:50:25;;;;;;;18.90;12.30;;;2.00;99.90;;;;;;5081672;28;20346;-68
2020/12/15 02:52:52;;;;;;;20.97;12.87;;;2.00;99.90;;;;;;5080028;28;20209;-70
2020/12/15 02:55:19;;;;;;;20.27;13.37;;;2.00;99.90;;;;;;5076771;28;20557;-68
2020/12/15 02:57:48;;;;;;;17.83;11.23;;;2.00;99.90;;;;;;5080723;28;20207;-68
2020/12/15 03:00:16;;;;;;;19.23;12.33;;;2.00;99.90;;;;;;5078184;28;20205;-68
2020/12/15 03:02:42;;;;;;;19.53;12.20;;;2.00;99.90;;;;;;5079200;28;20324;-68
2020/12/15 03:05:09;;;;;;;20.53;12.90;;;2.00;99.90;;;;;;5079918;28;20704;-69
2020/12/15 03:07:35;;;;;;;19.60;12.60;;;2.00;99.90;;;;;;5084485;28;20689;-69
2020/12/15 03:10:02;;;;;;;23.33;13.83;;;2.00;99.90;;;;;;5080417;28;20292;-69
2020/12/15 03:12:29;;;;;;;22.03;12.90;;;2.00;99.90;;;;;;5080456;28;20221;-69
2020/12/15 03:14:56;;;;;;;22.00;13.83;;;1.90;99.90;;;;;;5086092;28;20643;-68
2020/12/15 03:17:23;;;;;;;22.73;13.47;;;1.90;99.90;;;;;;5078567;28;20573;-69
2020/12/15 03:19:49;;;;;;;21.87;13.47;;;1.90;99.90;;;;;;5092878;28;20756;-69
2020/12/15 03:22:15;;;;;;;20.40;13.40;;;1.90;99.90;;;;;;5079839;28;20220;-68
2020/12/15 03:24:42;;;;;;;21.57;13.70;;;1.90;99.90;;;;;;5080805;28;20211;-69
2020/12/15 03:27:09;;;;;;;22.93;14.20;;;1.80;99.90;;;;;;5081217;28;20296;-69
2020/12/15 03:29:35;;;;;;;22.37;14.07;;;1.80;99.90;;;;;;5078555;28;20236;-68
2020/12/15 03:32:03;;;;;;;21.73;13.00;;;1.80;99.90;;;;;;5080247;28;20292;-68
2020/12/15 03:34:29;;;;;;;25.50;15.10;;;1.80;99.90;;;;;;5076892;28;20219;-68
2020/12/15 03:36:56;;;;;;;23.77;13.97;;;1.70;99.90;;;;;;5077673;28;20209;-68
2020/12/15 03:39:22;;;;;;;24.27;14.70;;;1.70;99.90;;;;;;5081363;28;20317;-68
2020/12/15 03:41:49;;;;;;;24.50;15.07;;;1.70;99.90;;;;;;5086224;28;20236;-69
2020/12/15 03:44:15;;;;;;;26.07;14.70;;;1.70;99.90;;;;;;5079409;28;20224;-68
2020/12/15 03:46:42;;;;;;;22.00;14.60;;;1.70;99.90;;;;;;5077943;28;20323;-68
2020/12/15 03:49:09;;;;;;;24.90;14.13;;;1.70;99.90;;;;;;5079389;28;20240;-68
2020/12/15 03:51:35;;;;;;;21.63;13.97;;;1.70;99.90;;;;;;5084384;28;20201;-68
2020/12/15 03:54:02;;;;;;;28.97;15.50;;;1.60;99.90;;;;;;5081175;28;20293;-67
2020/12/15 03:56:28;;;;;;;23.57;14.20;;;1.60;99.90;;;;;;5084100;28;20709;-68
2020/12/15 03:58:54;;;;;;;27.07;14.43;;;1.60;99.90;;;;;;5079222;28;20706;-69
2020/12/15 04:01:21;;;;;;;25.63;13.97;;;1.70;99.90;;;;;;5077670;28;20662;-69
2020/12/15 04:03:47;;;;;;;25.50;14.63;;;1.60;99.90;;;;;;5081523;28;20303;-68
2020/12/15 04:06:14;;;;;;;25.20;14.67;;;1.60;99.90;;;;;;5082523;28;20234;-68
2020/12/15 04:08:41;;;;;;;22.40;13.50;;;1.50;99.90;;;;;;5084230;28;20216;-68
2020/12/15 04:11:08;;;;;;;22.03;13.70;;;1.60;99.90;;;;;;5080066;28;20209;-69
2020/12/15 04:13:34;;;;;;;25.00;13.07;;;1.50;99.90;;;;;;5078057;28;20302;-69
2020/12/15 04:16:01;;;;;;;26.50;15.03;;;1.50;99.90;;;;;;5081128;28;20220;-68
2020/12/15 04:18:27;;;;;;;26.30;13.97;;;1.50;99.90;;;;;;5084752;28;20215;-68
2020/12/15 04:20:53;;;;;;;27.23;13.73;;;1.40;99.90;;;;;;5086389;28;20201;-69
2020/12/15 04:23:21;;;;;;;24.07;13.17;;;1.40;99.90;;;;;;5084081;28;20683;-69
2020/12/15 04:25:54;;;;;;;21.07;14.00;;;1.40;99.90;;;;;;5077163;28;20225;-69
2020/12/15 04:28:21;;;;;;;27.93;14.20;;;1.30;99.90;;;;;;5079607;28;20200;-69
2020/12/15 04:30:48;;;;;;;29.83;14.03;;;1.30;99.90;;;;;;5085149;28;20201;-69
2020/12/15 04:33:15;;;;;;;27.67;14.97;;;1.30;99.90;;;;;;5079881;28;20296;-68
2020/12/15 04:35:41;;;;;;;27.37;13.57;;;1.40;99.90;;;;;;5078682;28;20202;-68
2020/12/15 04:38:08;;;;;;;24.37;13.90;;;1.30;99.90;;;;;;5077885;28;20217;-69
2020/12/15 04:40:35;;;;;;;29.53;14.90;;;1.40;99.90;;;;;;5085334;28;20260;-70
2020/12/15 04:43:03;;;;;;;30.67;16.07;;;1.40;99.90;;;;;;5078368;28;20733;-69
2020/12/15 04:45:29;;;;;;;25.23;14.07;;;1.40;99.90;;;;;;5078906;28;20225;-68
2020/12/15 04:48:05;;;;;;;26.87;14.23;;;1.40;99.90;;;;;;5081001;28;20295;-69
2020/12/15 04:50:33;;;;;;;29.30;15.00;;;1.40;99.90;;;;;;5081284;28;20217;-69
2020/12/15 04:53:06;;;;;;;33.80;15.90;;;1.40;99.90;;;;;;5080843;28;20209;-69
2020/12/15 04:55:34;;;;;;;29.50;16.07;;;1.40;99.90;;;;;;5086405;28;20754;-68
2020/12/15 04:58:02;;;;;;;28.10;15.70;;;1.40;99.90;;;;;;5081149;28;20241;-70
2020/12/15 05:00:28;;;;;;;30.57;15.80;;;1.40;99.90;;;;;;5080778;28;20205;-69
2020/12/15 05:02:55;;;;;;;27.43;14.20;;;1.60;99.90;;;;;;5075089;28;20758;-70
2020/12/15 05:05:23;;;;;;;29.23;15.00;;;1.50;99.90;;;;;;5081558;28;20233;-69
2020/12/15 05:07:49;;;;;;;24.67;14.73;;;1.40;99.90;;;;;;5082336;28;20553;-69
2020/12/15 05:10:18;;;;;;;27.33;15.30;;;1.40;99.90;;;;;;5078019;28;20240;-69
2020/12/15 05:12:47;;;;;;;33.17;15.13;;;1.40;99.90;;;;;;5078504;28;20231;-70
2020/12/15 05:15:15;;;;;;;29.20;15.40;;;1.40;99.90;;;;;;5080336;28;20240;-70
2020/12/15 05:17:41;;;;;;;29.00;16.30;;;1.40;99.90;;;;;;5081913;28;20197;-70
2020/12/15 05:20:09;;;;;;;30.10;15.67;;;1.40;99.90;;;;;;5076152;28;20597;-70
2020/12/15 05:22:42;;;;;;;30.57;16.03;;;1.40;99.90;;;;;;5074181;28;20208;-69
2020/12/15 05:25:10;;;;;;;32.47;16.03;;;1.40;99.90;;;;;;5078210;28;20304;-68
2020/12/15 05:27:43;;;;;;;31.37;16.20;;;1.40;99.90;;;;;;5081315;28;20287;-69
2020/12/15 05:30:11;;;;;;;33.67;16.73;;;1.50;99.90;;;;;;5077832;28;20215;-70
2020/12/15 05:32:47;;;;;;;33.27;16.57;;;1.50;99.90;;;;;;5075788;28;20245;-69
2020/12/15 05:35:14;;;;;;;34.13;16.53;;;1.50;99.90;;;;;;5078863;28;20201;-69
2020/12/15 05:37:43;;;;;;;27.97;15.47;;;1.50;99.90;;;;;;5076957;28;20289;-69
2020/12/15 05:40:10;;;;;;;31.50;16.20;;;1.50;99.90;;;;;;5074257;28;20208;-70
2020/12/15 05:42:38;;;;;;;29.37;15.73;;;1.50;99.90;;;;;;5085234;28;20366;-70
2020/12/15 05:45:05;;;;;;;29.20;16.83;;;1.40;99.90;;;;;;5078120;28;20201;-69
2020/12/15 05:47:32;;;;;;;31.07;15.43;;;1.40;99.90;;;;;;5078867;28;20211;-69
2020/12/15 05:49:59;;;;;;;28.17;15.20;;;1.40;99.90;;;;;;5082150;28;20201;-69
2020/12/15 05:52:26;;;;;;;26.80;15.20;;;1.30;99.90;;;;;;5079264;28;20209;-69
2020/12/15 05:55:04;;;;;;;29.57;14.67;;;1.30;99.90;;;;;;5084038;28;20208;-69
2020/12/15 05:57:32;;;;;;;29.97;15.37;;;1.30;99.90;;;;;;5078740;28;20232;-69
2020/12/15 06:00:07;;;;;;;30.53;15.63;;;1.30;99.90;;;;;;5076574;28;20271;-70
2020/12/15 06:02:35;;;;;;;29.40;15.03;;;1.30;99.90;;;;;;5080174;28;20228;-70
2020/12/15 06:05:01;;;;;;;29.67;15.67;;;1.30;99.90;;;;;;5082947;28;20206;-70
2020/12/15 06:07:28;;;;;;;29.67;15.87;;;1.30;99.90;;;;;;5076408;28;20209;-70
2020/12/15 06:09:57;;;;;;;26.87;15.67;;;1.20;99.90;;;;;;5076633;28;20251;-70
2020/12/15 06:12:24;;;;;;;31.73;17.57;;;1.10;99.90;;;;;;5077890;28;20289;-68
2020/12/15 06:14:50;;;;;;;33.20;17.47;;;1.10;99.90;;;;;;5079105;28;20709;-70
2020/12/15 06:17:18;;;;;;;29.37;16.03;;;1.10;99.90;;;;;;5080971;28;20197;-69
2020/12/15 06:19:50;;;;;;;29.50;16.00;;;1.10;99.90;;;;;;5078020;28;20288;-68
2020/12/15 06:22:17;;;;;;;30.83;17.57;;;1.10;99.90;;;;;;5077682;28;20732;-69
2020/12/15 06:24:54;;;;;;;33.00;17.43;;;1.10;99.90;;;;;;5078378;28;20293;-69
2020/12/15 06:27:29;;;;;;;28.63;15.77;;;1.10;99.90;;;;;;5075889;28;20201;-68
2020/12/15 06:29:56;;;;;;;27.43;16.07;;;1.10;99.90;;;;;;5083748;28;20260;-69
2020/12/15 06:32:22;;;;;;;28.37;15.53;;;1.10;99.90;;;;;;5079561;28;20204;-69
2020/12/15 06:34:52;;;;;;;28.97;15.90;;;1.10;99.90;;;;;;5081455;28;20211;-68
2020/12/15 06:37:20;;;;;;;33.10;16.73;;;1.10;99.90;;;;;;5080451;28;20675;-69
2020/12/15 06:39:55;;;;;;;30.27;15.17;;;1.10;99.90;;;;;;5076277;28;20203;-70
2020/12/15 06:42:22;;;;;;;32.93;17.07;;;1.10;99.90;;;;;;5081313;28;20213;-68
2020/12/15 06:44:59;;;;;;;33.40;16.70;;;1.10;99.90;;;;;;5075980;28;20292;-69
2020/12/15 06:47:26;;;;;;;29.73;17.30;;;1.00;99.90;;;;;;5077801;28;20231;-68
2020/12/15 06:49:54;;;;;;;33.47;19.27;;;1.00;99.90;;;;;;5078521;28;20346;-70
2020/12/15 06:52:28;;;;;;;32.83;17.77;;;1.00;99.90;;;;;;5075317;28;20224;-69
2020/12/15 06:54:58;;;;;;;34.27;19.10;;;1.00;99.90;;;;;;5075973;28;20213;-69
2020/12/15 06:57:34;;;;;;;36.83;18.57;;;1.10;99.90;;;;;;5077233;28;20228;-69
2020/12/15 07:00:05;;;;;;;35.20;19.30;;;1.10;99.90;;;;;;5074968;28;20308;-68
2020/12/15 07:02:32;;;;;;;31.40;17.63;;;1.10;99.90;;;;;;5073532;28;20236;-69
2020/12/15 07:05:23;;;;;;;33.57;18.00;;;1.20;99.90;;;;;;5074758;28;20291;-70
2020/12/15 07:07:52;;;;;;;38.20;19.07;;;1.10;99.90;;;;;;5080442;28;20713;-69
2020/12/15 07:10:22;;;;;;;38.10;19.43;;;1.20;99.90;;;;;;5077363;28;20207;-69
2020/12/15 07:12:50;;;;;;;34.50;19.40;;;1.20;99.90;;;;;;5080111;28;20221;-69
2020/12/15 07:15:17;;;;;;;39.80;19.27;;;1.20;99.90;;;;;;5077174;28;20217;-69
2020/12/15 07:17:45;;;;;;;32.30;17.50;;;1.20;99.90;;;;;;5074498;28;20235;-68
2020/12/15 07:20:12;;;;;;;34.20;17.87;;;1.20;99.90;;;;;;5073960;28;20617;-68
2020/12/15 07:22:40;;;;;;;35.43;18.23;;;1.20;99.90;;;;;;5086236;28;20576;-68
2020/12/15 07:25:07;;;;;;;35.40;18.00;;;1.20;99.90;;;;;;5094027;28;20213;-69
2020/12/15 07:27:34;;;;;;;34.83;18.77;;;1.20;99.90;;;;;;5089782;28;20266;-68
2020/12/15 07:30:01;;;;;;;37.67;18.03;;;1.20;99.90;;;;;;5096049;28;20295;-69
2020/12/15 07:32:27;;;;;;;38.47;18.90;;;1.10;99.90;;;;;;5087382;28;20214;-70
2020/12/15 07:35:01;;;;;;;33.07;18.10;;;1.20;99.90;;;;;;5087176;28;20209;-69
2020/12/15 07:37:28;;;;;;;37.40;20.90;;;1.20;99.90;;;;;;5090128;28;20294;-70
2020/12/15 07:40:04;;;;;;;35.97;18.33;;;1.30;99.90;;;;;;5088825;28;20224;-70
2020/12/15 07:42:30;;;;;;;36.33;17.93;;;1.30;99.90;;;;;;5085082;28;20550;-69
2020/12/15 07:44:59;;;;;;;37.23;20.07;;;1.30;99.90;;;;;;5096406;28;20224;-70
2020/12/15 07:47:26;;;;;;;37.43;20.83;;;1.30;99.90;;;;;;5089252;28;20260;-71
2020/12/15 07:49:57;;;;;;;36.13;18.53;;;1.40;99.90;;;;;;5089888;28;20564;-69
2020/12/15 07:52:31;;;;;;;30.13;17.37;;;1.40;99.90;;;;;;5087981;28;20582;-70
2020/12/15 07:55:06;;;;;;;39.53;19.53;;;1.40;99.90;;;;;;5078092;28;20240;-70
2020/12/15 07:57:41;;;;;;;34.23;18.47;;;1.40;99.90;;;;;;5090419;28;20250;-81
2020/12/15 08:00:09;;;;;;;38.17;18.73;;;1.40;99.90;;;;;;5109570;28;20200;-81
2020/12/15 08:02:36;;;;;;;35.07;17.60;;;1.50;99.90;;;;;;5091784;28;20735;-79
2020/12/15 08:05:07;;;;;;;34.63;17.27;;;1.40;99.90;;;;;;5099849;28;20639;-80
2020/12/15 08:07:39;;;;;;;34.73;18.07;;;1.40;99.90;;;;;;5090909;28;20209;-77
2020/12/15 08:10:09;;;;;;;36.37;20.03;;;1.30;99.90;;;;;;5093497;28;20559;-78
2020/12/15 08:12:40;;;;;;;35.80;19.33;;;1.20;99.90;;;;;;5086182;28;20243;-78
2020/12/15 08:15:07;;;;;;;38.43;19.50;;;1.20;99.90;;;;;;5090697;28;20201;-77
2020/12/15 08:17:34;;;;;;;36.90;18.90;;;1.30;99.90;;;;;;5095925;28;20239;-77
2020/12/15 08:20:04;;;;;;;46.13;23.27;;;1.30;99.90;;;;;;5088820;28;20204;-78
2020/12/15 08:22:39;;;;;;;43.03;20.37;;;1.30;99.90;;;;;;5082489;28;20237;-76
2020/12/15 08:25:09;;;;;;;39.03;18.73;;;1.30;99.90;;;;;;5083462;28;20287;-78
2020/12/15 08:27:36;;;;;;;36.07;18.30;;;1.40;99.90;;;;;;5084371;28;20205;-77
2020/12/15 08:30:14;;;;;;;39.20;19.17;;;1.40;99.90;;;;;;5087433;28;20217;-77
2020/12/15 08:32:46;;;;;;;37.60;17.60;;;1.30;99.90;;;;;;5094596;28;20255;-76
2020/12/15 08:35:13;;;;;;;36.67;18.50;;;1.40;99.90;;;;;;5095005;28;20284;-73
2020/12/15 08:37:43;;;;;;;48.57;18.00;;;1.30;99.90;;;;;;5080607;28;20300;-72
2020/12/15 08:40:12;;;;;;;37.53;17.37;;;1.30;99.90;;;;;;5083438;28;20200;-70
2020/12/15 08:42:44;;;;;;;40.13;18.17;;;1.20;99.90;;;;;;5079217;28;20569;-70
2020/12/15 08:45:11;;;;;;;39.00;18.77;;;1.20;99.90;;;;;;5079495;28;20209;-71
2020/12/15 08:47:43;;;;;;;37.63;18.63;;;1.30;99.90;;;;;;5075751;28;20243;-74
2020/12/15 08:50:11;;;;;;;43.27;20.53;;;1.30;99.90;;;;;;5088846;28;20600;-71
2020/12/15 08:52:38;;;;;;;41.53;19.17;;;1.30;99.90;;;;;;5086636;28;20216;-72
2020/12/15 08:55:04;;;;;;;44.47;18.50;;;1.40;99.90;;;;;;5091565;28;20696;-74
2020/12/15 08:57:31;;;;;;;44.03;18.63;;;1.40;99.90;;;;;;5090767;28;20197;-73
2020/12/15 09:00:13;;;;;;;43.80;20.03;;;1.50;99.90;;;;;;5077589;28;20670;-76
2020/12/15 09:02:39;;;;;;;38.23;18.80;;;1.50;99.90;;;;;;5077854;28;20601;-76
2020/12/15 09:05:10;;;;;;;41.93;20.53;;;1.50;99.90;;;;;;5076871;28;20212;-72
2020/12/15 09:07:37;;;;;;;42.23;18.47;;;1.60;99.90;;;;;;5088191;28;20248;-72
2020/12/15 09:10:11;;;;;;;46.63;21.57;;;1.60;99.90;;;;;;5075997;28;20318;-76
2020/12/15 09:12:42;;;;;;;36.57;18.57;;;1.60;99.90;;;;;;5087063;28;20228;-71
2020/12/15 09:15:08;;;;;;;44.50;21.20;;;1.70;99.90;;;;;;5079151;28;20211;-71
2020/12/15 09:17:35;;;;;;;41.83;20.47;;;1.70;99.90;;;;;;5076303;28;20201;-73
2020/12/15 09:20:02;;;;;;;42.93;20.87;;;1.70;99.90;;;;;;5081670;28;20239;-73
2020/12/15 09:22:28;;;;;;;46.43;19.10;;;1.60;99.90;;;;;;5081953;28;20232;-71
2020/12/15 09:24:57;;;;;;;40.80;19.23;;;1.70;99.90;;;;;;5095004;28;20287;-72
2020/12/15 09:27:25;;;;;;;38.83;19.83;;;1.60;99.90;;;;;;5086385;28;20260;-78
2020/12/15 09:29:52;;;;;;;40.40;19.10;;;1.60;99.90;;;;;;5079471;28;20236;-69
2020/12/15 09:32:19;;;;;;;41.77;20.23;;;1.60;99.90;;;;;;5082824;28;20745;-69
2020/12/15 09:34:46;;;;;;;40.77;20.50;;;1.70;99.90;;;;;;5076278;28;20201;-69
2020/12/15 09:37:13;;;;;;;43.47;21.10;;;1.70;99.90;;;;;;5091330;28;20233;-72
2020/12/15 09:39:40;;;;;;;42.40;19.97;;;1.70;99.90;;;;;;5082910;28;20300;-71
2020/12/15 09:42:07;;;;;;;42.43;20.10;;;1.80;99.90;;;;;;5083650;28;20215;-71
2020/12/15 09:44:34;;;;;;;40.13;19.80;;;1.80;99.90;;;;;;5087534;28;20200;-70
2020/12/15 09:47:03;;;;;;;42.00;20.03;;;1.80;99.90;;;;;;5093818;28;20220;-70
2020/12/15 09:49:30;;;;;;;42.50;19.97;;;1.80;99.90;;;;;;5094542;28;20213;-70
2020/12/15 09:51:56;;;;;;;37.00;20.17;;;1.80;99.90;;;;;;5078298;28;20212;-71
2020/12/15 09:54:23;;;;;;;43.83;19.83;;;1.80;99.90;;;;;;5079067;28;20276;-70
2020/12/15 09:56:49;;;;;;;42.63;20.60;;;1.80;99.90;;;;;;5078744;28;20762;-70
2020/12/15 09:59:16;;;;;;;43.17;19.97;;;1.80;99.90;;;;;;5083017;28;20201;-69
2020/12/15 10:01:43;;;;;;;42.87;19.93;;;1.80;99.90;;;;;;5084803;28;20283;-70
2020/12/15 10:04:10;;;;;;;36.40;19.43;;;1.90;99.90;;;;;;5084332;28;20232;-70
2020/12/15 10:06:38;;;;;;;36.70;18.57;;;1.90;99.90;;;;;;5073656;28;20649;-70
2020/12/15 10:09:04;;;;;;;37.87;20.10;;;1.80;99.90;;;;;;5088296;28;20226;-70
2020/12/15 10:11:31;;;;;;;39.90;19.37;;;1.80;99.90;;;;;;5087174;28;20228;-71
2020/12/15 10:13:58;;;;;;;37.67;18.73;;;1.90;99.90;;;;;;5090066;28;20212;-71
2020/12/15 10:16:24;;;;;;;37.47;20.43;;;1.90;99.90;;;;;;5083724;28;20607;-70
2020/12/15 10:18:53;;;;;;;37.33;19.70;;;1.90;99.90;;;;;;5088092;28;20211;-71
2020/12/15 10:21:20;;;;;;;42.17;20.60;;;2.00;99.90;;;;;;5089764;28;20213;-72
2020/12/15 10:23:47;;;;;;;45.90;20.33;;;2.00;99.90;;;;;;5085295;28;20224;-70
2020/12/15 10:26:19;;;;;;;41.50;19.90;;;2.00;99.90;;;;;;5087981;28;20247;-71
2020/12/15 10:28:46;;;;;;;39.50;19.47;;;2.00;99.90;;;;;;5095762;28;20759;-73
2020/12/15 10:31:13;;;;;;;37.93;19.63;;;2.00;99.90;;;;;;5079479;28;20251;-72
2020/12/15 10:33:39;;;;;;;42.93;20.53;;;1.90;99.90;;;;;;5082587;28;20246;-72
2020/12/15 10:36:06;;;;;;;42.87;20.50;;;1.90;99.90;;;;;;5083448;28;20212;-72
2020/12/15 10:38:33;;;;;;;37.90;19.53;;;1.90;99.90;;;;;;5092949;28;20205;-72
2020/12/15 10:41:00;;;;;;;41.00;20.67;;;1.90;99.90;;;;;;5088864;28;20224;-72
2020/12/15 10:43:26;;;;;;;42.90;20.77;;;1.90;99.90;;;;;;5084507;28;20681;-73
2020/12/15 10:45:53;;;;;;;43.37;20.63;;;1.90;99.90;;;;;;5094151;28;20228;-73
2020/12/15 10:48:19;;;;;;;40.80;20.23;;;1.90;99.90;;;;;;5093092;28;20208;-73
2020/12/15 10:50:46;;;;;;;41.97;20.23;;;1.90;99.90;;;;;;5087390;28;20262;-71
2020/12/15 10:53:13;;;;;;;43.40;21.37;;;1.90;99.90;;;;;;5075668;28;20211;-71
2020/12/15 10:55:40;;;;;;;36.77;18.67;;;2.00;99.90;;;;;;5092478;28;20216;-70
2020/12/15 10:58:07;;;;;;;38.17;19.27;;;2.00;99.90;;;;;;5087350;28;20208;-71
2020/12/15 11:00:34;;;;;;;39.50;19.47;;;2.00;99.90;;;;;;5074249;28;20284;-69
2020/12/15 11:03:00;;;;;;;38.07;19.67;;;2.00;99.90;;;;;;5093709;28;20229;-71
2020/12/15 11:05:27;;;;;;;33.77;18.40;;;2.00;99.90;;;;;;5091209;28;20272;-69
2020/12/15 11:07:53;;;;;;;39.00;19.27;;;2.00;99.90;;;;;;5087699;28;20287;-71
2020/12/15 11:10:20;;;;;;;39.03;20.67;;;2.00;99.90;;;;;;5095918;28;20723;-71
2020/12/15 11:12:47;;;;;;;36.63;20.00;;;1.90;99.90;;;;;;5082891;28;20307;-72
2020/12/15 11:15:13;;;;;;;36.67;19.67;;;1.90;99.90;;;;;;5093817;28;20214;-69
2020/12/15 11:17:40;;;;;;;38.87;18.97;;;1.90;99.90;;;;;;5083134;28;20296;-70
2020/12/15 11:20:06;;;;;;;39.50;19.67;;;2.00;99.90;;;;;;5084763;28;20251;-70
2020/12/15 11:22:34;;;;;;;34.03;19.47;;;2.10;99.90;;;;;;5088496;28;20201;-70
2020/12/15 11:25:01;;;;;;;35.53;18.90;;;2.20;99.90;;;;;;5086240;28;20641;-70
2020/12/15 11:27:27;;;;;;;33.33;17.57;;;2.20;99.90;;;;;;5081014;28;20511;-70
2020/12/15 11:29:55;;;;;;;35.27;19.83;;;2.30;99.90;;;;;;5088663;28;20212;-69
2020/12/15 11:32:21;;;;;;;37.37;18.53;;;2.20;99.90;;;;;;5095915;28;20254;-70
2020/12/15 11:34:48;;;;;;;33.03;18.13;;;2.20;99.90;;;;;;5089877;28;20557;-70
2020/12/15 11:37:14;;;;;;;36.93;19.33;;;2.10;99.90;;;;;;5087770;28;20211;-71
2020/12/15 11:39:41;;;;;;;31.93;15.93;;;2.10;99.90;;;;;;5084070;28;20262;-70
2020/12/15 11:42:10;;;;;;;32.87;18.10;;;2.10;99.90;;;;;;5088037;28;20231;-71
2020/12/15 11:44:36;;;;;;;30.23;16.53;;;2.00;99.90;;;;;;5085763;28;20212;-71
2020/12/15 11:47:04;;;;;;;34.27;17.70;;;2.00;99.90;;;;;;5095741;28;20220;-72
2020/12/15 11:49:31;;;;;;;37.90;19.03;;;1.90;99.90;;;;;;5084468;28;20252;-71
2020/12/15 11:51:57;;;;;;;34.30;16.50;;;1.90;99.90;;;;;;5087603;28;20201;-71
2020/12/15 11:54:24;;;;;;;44.70;19.10;;;1.90;99.90;;;;;;5088273;28;20250;-72
2020/12/15 11:56:51;;;;;;;32.97;17.00;;;1.90;99.90;;;;;;5087404;28;20292;-71
2020/12/15 11:59:17;;;;;;;36.70;18.53;;;1.80;99.90;;;;;;5090961;28;20429;-71
2020/12/15 12:01:44;;;;;;;37.30;19.13;;;1.80;99.90;;;;;;5091978;28;20288;-71
2020/12/15 12:04:11;;;;;;;39.50;19.53;;;1.80;99.90;;;;;;5092223;28;20204;-71
2020/12/15 12:06:38;;;;;;;36.00;18.33;;;1.90;99.90;;;;;;5095106;28;20224;-72
2020/12/15 12:09:05;;;;;;;35.73;18.70;;;1.90;99.90;;;;;;5083685;28;20355;-71
2020/12/15 12:11:31;;;;;;;39.57;19.67;;;1.90;99.90;;;;;;5077121;28;20237;-70
2020/12/15 12:13:57;;;;;;;39.97;19.90;;;1.90;99.90;;;;;;5080602;28;20421;-71
2020/12/15 12:16:24;;;;;;;38.20;19.30;;;1.90;99.90;;;;;;5091542;28;20285;-72
2020/12/15 12:18:50;;;;;;;41.23;21.10;;;1.90;99.90;;;;;;5077056;28;20215;-71
2020/12/15 12:21:18;;;;;;;38.47;19.67;;;2.00;99.90;;;;;;5082580;28;20597;-72
2020/12/15 12:23:44;;;;;;;34.77;19.03;;;1.90;99.90;;;;;;5084050;28;20216;-70
2020/12/15 12:26:15;;;;;;;40.23;19.57;;;2.00;99.90;;;;;;5083978;28;20307;-70
2020/12/15 12:28:42;;;;;;;37.17;19.33;;;2.00;99.90;;;;;;5079766;28;20204;-70
2020/12/15 12:31:12;;;;;;;38.03;19.13;;;1.90;99.90;;;;;;5076854;28;20213;-71
2020/12/15 12:33:38;;;;;;;33.33;18.67;;;1.90;99.90;;;;;;5089043;28;20627;-70
2020/12/15 12:36:05;;;;;;;40.07;19.43;;;1.90;99.90;;;;;;5083021;28;20209;-70
2020/12/15 12:38:32;;;;;;;33.87;16.80;;;1.90;99.90;;;;;;5076930;28;20216;-70